Nunoa, Chile
Current Conditions -  °F | °C
As of 8:00 AM on Saturday 25 Oct 2014 (Local Time) from SCEL Reporting Station
Clear Clear  
Wind Chill: 66°   Ceiling: Unl
Heat Index: 66°   Visibility: 6mi
Dew Point: 45°   Wind: 2mph
Humidity: 46%   Direction: NA
Pressure: 29.88"   Gusts: NA
Location:  33.47°S, 70.6°W
Report Text: SCEL 251200Z VRB02KT CAVOK 19/07 Q1012 NOSIG
Loading
Personal Weather Stations






























Interactive Weather Map
Tropical Storm Tracking
New forecast layout! Learn more

10-Day Weather Forecast

Advertisements
Track Severe Weather on mobile